createdAt,value
2019-03-19T00:00:18.308Z,79.80
2019-03-19T00:02:51.325Z,80.13
2019-03-19T00:05:23.219Z,80.39
2019-03-19T00:07:56.178Z,80.47
2019-03-19T00:10:28.055Z,80.99
2019-03-19T00:12:59.872Z,81.04
2019-03-19T00:15:31.733Z,81.08
2019-03-19T00:18:03.633Z,81.34
2019-03-19T00:20:35.624Z,81.49
2019-03-19T00:23:07.483Z,81.68
2019-03-19T00:25:40.447Z,81.28
2019-03-19T00:28:12.283Z,81.28
2019-03-19T00:30:44.135Z,81.11
2019-03-19T00:33:16.023Z,81.06
2019-03-19T00:35:47.906Z,80.93
2019-03-19T00:38:19.721Z,80.67
2019-03-19T00:40:51.574Z,80.81
2019-03-19T00:43:23.464Z,80.83
2019-03-19T00:45:55.675Z,80.75
2019-03-19T00:48:27.451Z,80.51
2019-03-19T00:50:59.310Z,80.67
2019-03-19T00:53:31.158Z,81.04
2019-03-19T00:56:03.004Z,80.59
2019-03-19T00:58:34.882Z,80.66
2019-03-19T01:01:06.735Z,81.21
2019-03-19T01:03:38.624Z,81.49
2019-03-19T01:06:10.429Z,81.53
2019-03-19T01:08:42.272Z,81.33
2019-03-19T01:11:14.112Z,81.42
2019-03-19T01:13:45.947Z,81.42
2019-03-19T01:16:17.817Z,81.63
2019-03-19T01:18:49.626Z,81.36
2019-03-19T01:21:21.546Z,81.27
2019-03-19T01:23:53.383Z,81.30
2019-03-19T01:26:25.311Z,81.14
2019-03-19T01:28:57.171Z,81.30
2019-03-19T01:31:29.048Z,81.20
2019-03-19T01:34:00.927Z,81.10
2019-03-19T01:36:32.801Z,80.94
2019-03-19T01:46:56.455Z,81.13
2019-03-19T01:49:28.307Z,81.21
2019-03-19T01:53:03.466Z,81.48
2019-03-19T01:55:35.425Z,81.58
2019-03-19T01:58:07.222Z,81.58
2019-03-19T02:00:40.310Z,81.50
2019-03-19T02:03:12.194Z,81.35
2019-03-19T02:05:44.064Z,81.35
2019-03-19T02:08:15.942Z,81.45
2019-03-19T02:10:47.975Z,81.44
2019-03-19T02:13:19.808Z,81.45
2019-03-19T02:15:51.682Z,81.28
2019-03-19T02:18:23.509Z,81.24
2019-03-19T02:20:55.366Z,81.13
2019-03-19T02:23:27.217Z,81.28
2019-03-19T02:25:59.065Z,81.20
2019-03-19T02:28:32.504Z,81.09
2019-03-19T02:31:04.390Z,81.12
2019-03-19T02:33:36.279Z,81.28
2019-03-19T02:36:08.084Z,81.42
2019-03-19T02:38:39.934Z,81.54
2019-03-19T02:41:11.760Z,81.46
2019-03-19T02:43:43.621Z,81.07
2019-03-19T02:46:15.443Z,81.05
2019-03-19T02:48:47.316Z,81.11
2019-03-19T02:51:19.174Z,81.12
2019-03-19T02:53:51.033Z,81.38
2019-03-19T02:56:32.770Z,81.29
2019-03-19T02:58:57.403Z,81.20
2019-03-19T03:01:29.237Z,81.42
2019-03-19T03:04:01.119Z,81.12
2019-03-19T03:06:32.976Z,81.13
2019-03-19T03:09:06.419Z,81.31
2019-03-19T03:11:39.712Z,81.40
2019-03-19T03:14:12.519Z,81.55
2019-03-19T03:16:44.343Z,81.48
2019-03-19T03:19:16.184Z,81.40
2019-03-19T03:21:48.026Z,81.62
2019-03-19T03:24:19.893Z,81.40
2019-03-19T03:26:51.808Z,81.04
2019-03-19T03:29:23.685Z,81.29
2019-03-19T03:31:55.527Z,81.71
2019-03-19T03:34:27.451Z,81.68
2019-03-19T03:36:59.291Z,81.27
2019-03-19T03:39:31.543Z,81.87
2019-03-19T03:42:03.393Z,82.05
2019-03-19T03:44:35.287Z,81.81
2019-03-19T03:47:07.142Z,81.41
2019-03-19T03:49:40.072Z,81.58
2019-03-19T03:52:11.977Z,81.90
2019-03-19T03:54:43.834Z,81.58
2019-03-19T03:57:15.710Z,81.44
2019-03-19T03:59:47.573Z,81.20
2019-03-19T04:02:19.409Z,81.48
2019-03-19T04:04:51.231Z,81.35
2019-03-19T04:07:23.085Z,81.22
2019-03-19T04:09:54.920Z,81.18
2019-03-19T04:12:26.772Z,81.34
2019-03-19T04:14:58.612Z,81.06
2019-03-19T04:17:30.469Z,80.80
2019-03-19T04:20:02.294Z,80.71
2019-03-19T04:22:34.164Z,81.08
2019-03-19T04:25:06.478Z,81.21
2019-03-19T04:27:40.391Z,80.88
2019-03-19T04:30:12.254Z,80.64
2019-03-19T04:32:44.095Z,80.59
2019-03-19T04:35:15.945Z,80.51
2019-03-19T04:37:47.793Z,80.45
2019-03-19T04:40:19.691Z,80.69
2019-03-19T04:42:51.539Z,80.72
2019-03-19T04:45:23.404Z,80.52
2019-03-19T04:47:55.275Z,80.51
2019-03-19T04:50:28.914Z,80.58
2019-03-19T04:53:00.773Z,80.53
2019-03-19T04:55:32.586Z,80.26
2019-03-19T04:58:04.446Z,80.38
2019-03-19T05:00:36.338Z,80.40
2019-03-19T05:03:08.184Z,80.37
2019-03-19T05:05:42.824Z,80.32
2019-03-19T05:08:14.719Z,80.17
2019-03-19T05:10:46.545Z,80.03
2019-03-19T05:13:19.517Z,79.66
2019-03-19T05:15:51.596Z,80.08
2019-03-19T05:18:23.465Z,79.65
2019-03-19T05:20:55.305Z,79.65
2019-03-19T05:23:27.203Z,79.67
2019-03-19T05:25:59.079Z,79.59
2019-03-19T05:28:30.952Z,79.42
2019-03-19T05:31:02.865Z,79.64
2019-03-19T05:33:34.883Z,79.84
2019-03-19T05:36:06.719Z,79.86
2019-03-19T05:38:38.578Z,79.90
2019-03-19T05:41:10.384Z,79.88
2019-03-19T05:43:42.241Z,79.80
2019-03-19T05:46:14.208Z,79.77
2019-03-19T05:48:46.087Z,79.76
2019-03-19T05:51:17.939Z,79.74
2019-03-19T05:53:49.777Z,79.68
2019-03-19T05:56:21.622Z,79.85
2019-03-19T05:58:53.442Z,79.65
2019-03-19T06:01:25.292Z,79.44
2019-03-19T06:03:57.140Z,79.40
2019-03-19T06:06:29.064Z,79.59
2019-03-19T06:09:00.906Z,79.12
2019-03-19T06:11:33.085Z,78.85
2019-03-19T06:14:04.940Z,78.92
2019-03-19T06:16:36.846Z,78.51
2019-03-19T06:19:08.686Z,78.75
2019-03-19T06:21:40.545Z,78.82
2019-03-19T06:24:12.398Z,78.54
2019-03-19T06:26:44.292Z,77.15
2019-03-19T06:29:16.160Z,76.73
2019-03-19T06:31:48.071Z,76.68
2019-03-19T06:34:23.814Z,75.88
2019-03-19T06:36:55.675Z,75.23
2019-03-19T06:39:27.537Z,74.67
2019-03-19T06:41:59.411Z,73.70
2019-03-19T06:44:32.065Z,73.29
2019-03-19T06:47:03.663Z,71.79
2019-03-19T06:49:35.230Z,70.94
2019-03-19T06:52:06.881Z,72.25
2019-03-19T06:54:39.493Z,71.10
2019-03-19T06:57:11.292Z,70.29
2019-03-19T06:59:42.851Z,71.55
2019-03-19T07:02:14.470Z,70.38
2019-03-19T07:04:46.030Z,69.55
2019-03-19T07:07:17.608Z,70.85
2019-03-19T07:09:49.205Z,70.29
2019-03-19T07:12:20.779Z,69.97
2019-03-19T07:14:52.486Z,68.33
2019-03-19T07:17:24.122Z,68.24
2019-03-19T07:19:55.689Z,68.36
2019-03-19T07:22:27.266Z,67.71
2019-03-19T07:24:58.888Z,68.75
2019-03-19T07:27:30.541Z,69.25
2019-03-19T07:30:02.103Z,67.70
2019-03-19T07:32:33.783Z,68.49
2019-03-19T07:35:05.446Z,68.74
2019-03-19T07:37:37.076Z,70.41
2019-03-19T07:40:11.394Z,69.00
2019-03-19T07:42:43.018Z,66.82
2019-03-19T07:45:16.065Z,68.17
2019-03-19T07:47:47.642Z,69.06
2019-03-19T07:50:19.329Z,70.16
2019-03-19T07:52:51.973Z,69.71
2019-03-19T07:55:23.703Z,70.62
2019-03-19T07:57:55.300Z,71.74
2019-03-19T08:00:26.917Z,71.95
2019-03-19T08:02:58.501Z,70.92
2019-03-19T08:05:33.309Z,67.26
2019-03-19T08:08:03.508Z,67.05
2019-03-19T08:10:35.116Z,66.88
2019-03-19T08:13:06.775Z,68.64
2019-03-19T08:15:38.384Z,65.87
2019-03-19T08:18:10.039Z,64.94
2019-03-19T08:20:41.663Z,65.97
2019-03-19T08:23:13.234Z,66.90
2019-03-19T08:25:44.854Z,66.65
2019-03-19T08:28:16.422Z,66.00
2019-03-19T08:30:47.993Z,65.01
2019-03-19T08:33:19.574Z,65.44
2019-03-19T08:35:52.838Z,65.37
2019-03-19T08:38:26.467Z,65.48
2019-03-19T08:40:57.729Z,65.36
2019-03-19T08:43:29.327Z,63.18
2019-03-19T08:46:00.899Z,65.17
2019-03-19T08:48:32.529Z,64.12
2019-03-19T08:51:04.124Z,64.41
2019-03-19T08:53:35.723Z,65.40
2019-03-19T08:56:07.307Z,63.39
2019-03-19T08:58:38.903Z,65.72
2019-03-19T09:01:10.471Z,63.33
2019-03-19T09:03:42.062Z,63.27
2019-03-19T09:06:13.647Z,63.87
2019-03-19T09:08:45.257Z,64.52
2019-03-19T09:11:16.822Z,61.87
2019-03-19T09:13:48.444Z,63.66
2019-03-19T09:16:20.010Z,62.57
2019-03-19T09:18:51.824Z,58.44
2019-03-19T09:21:23.410Z,60.28
2019-03-19T09:23:55.057Z,58.76
2019-03-19T09:26:26.639Z,59.42
2019-03-19T09:28:58.240Z,61.93
2019-03-19T09:31:29.891Z,59.70
2019-03-19T09:34:01.428Z,59.42
2019-03-19T09:36:33.018Z,56.03
2019-03-19T09:39:07.074Z,56.87
2019-03-19T09:41:38.682Z,56.11
2019-03-19T09:44:10.267Z,55.59
2019-03-19T09:46:41.851Z,56.12
2019-03-19T09:49:13.435Z,54.04
2019-03-19T09:51:45.075Z,53.57
2019-03-19T09:54:16.664Z,49.33
2019-03-19T09:56:49.347Z,49.42
2019-03-19T09:59:27.053Z,50.83
2019-03-19T10:01:54.188Z,49.80
2019-03-19T10:04:25.737Z,50.47
2019-03-19T10:07:05.664Z,51.53
2019-03-19T10:09:30.784Z,51.68
2019-03-19T10:12:02.328Z,49.62
2019-03-19T10:14:33.930Z,48.71
2019-03-19T10:17:05.543Z,52.19
2019-03-19T10:19:37.177Z,51.26
2019-03-19T10:22:08.780Z,47.74
2019-03-19T10:24:40.367Z,49.90
2019-03-19T10:27:11.953Z,48.45
2019-03-19T10:29:43.524Z,50.42
2019-03-19T10:32:15.118Z,50.57
2019-03-19T10:34:46.741Z,50.00
2019-03-19T10:37:18.380Z,50.67
2019-03-19T10:39:49.989Z,49.30
2019-03-19T10:42:21.619Z,49.89
2019-03-19T10:44:53.203Z,53.58
2019-03-19T10:47:24.800Z,50.76
2019-03-19T10:49:56.661Z,48.43
2019-03-19T10:52:28.255Z,47.26
2019-03-19T10:54:59.842Z,49.25
2019-03-19T10:57:31.441Z,50.59
2019-03-19T11:00:13.989Z,50.81
2019-03-19T11:02:45.637Z,51.30
2019-03-19T11:05:17.430Z,51.16
2019-03-19T11:07:48.995Z,51.48
2019-03-19T11:10:21.014Z,50.27
2019-03-19T11:12:52.578Z,50.07
2019-03-19T11:15:24.239Z,48.66
2019-03-19T11:17:55.864Z,50.70
2019-03-19T11:20:27.468Z,49.43
2019-03-19T11:22:59.051Z,50.82
2019-03-19T11:25:31.754Z,50.42
2019-03-19T11:28:03.353Z,51.89
2019-03-19T11:30:35.019Z,51.97
2019-03-19T11:33:06.630Z,50.94
2019-03-19T11:35:38.283Z,50.43
2019-03-19T11:38:09.839Z,47.81
2019-03-19T11:40:41.420Z,46.29
2019-03-19T11:43:12.985Z,45.92
2019-03-19T11:45:45.695Z,47.82
2019-03-19T11:48:17.294Z,46.61
2019-03-19T11:50:48.914Z,46.03
2019-03-19T11:53:20.471Z,47.49
2019-03-19T11:55:52.061Z,47.55
2019-03-19T11:58:23.683Z,48.09
2019-03-19T12:00:58.311Z,47.12
2019-03-19T12:03:29.925Z,49.38
2019-03-19T12:06:01.562Z,47.75
2019-03-19T12:08:33.099Z,46.57
2019-03-19T12:11:04.767Z,46.98
2019-03-19T12:13:36.363Z,46.84
2019-03-19T12:16:07.944Z,48.24
2019-03-19T12:18:39.543Z,47.60
2019-03-19T12:21:11.150Z,49.38
2019-03-19T12:23:42.805Z,48.39
2019-03-19T12:26:14.324Z,47.84
2019-03-19T12:28:45.918Z,47.84
2019-03-19T12:31:17.516Z,46.38
2019-03-19T12:33:49.139Z,46.72
2019-03-19T12:36:20.792Z,47.38
2019-03-19T12:38:52.427Z,46.60
2019-03-19T12:41:24.006Z,47.45
2019-03-19T12:43:55.741Z,44.85
2019-03-19T12:46:27.314Z,45.22
2019-03-19T12:48:58.917Z,45.33
2019-03-19T12:51:30.469Z,44.43
2019-03-19T12:54:02.103Z,43.92
2019-03-19T12:56:33.685Z,45.04
2019-03-19T12:59:05.299Z,44.22
2019-03-19T13:01:37.040Z,45.94
2019-03-19T13:04:09.723Z,45.83
2019-03-19T13:06:41.277Z,44.67
2019-03-19T13:09:14.002Z,43.24
2019-03-19T13:11:45.631Z,42.28
2019-03-19T13:14:18.719Z,43.99
2019-03-19T13:16:50.358Z,43.62
2019-03-19T13:19:21.987Z,43.05
2019-03-19T13:21:53.885Z,42.50
2019-03-19T13:24:25.485Z,43.29
2019-03-19T13:26:57.083Z,42.86
2019-03-19T13:29:28.684Z,43.40
2019-03-19T13:32:00.420Z,43.27
2019-03-19T13:34:32.031Z,43.76
2019-03-19T13:37:03.674Z,43.22
2019-03-19T13:39:35.441Z,42.82
2019-03-19T13:42:08.506Z,43.64
2019-03-19T13:44:40.074Z,43.37
2019-03-19T13:47:11.947Z,42.86
2019-03-19T13:49:43.603Z,42.33
2019-03-19T13:52:15.144Z,42.11
2019-03-19T13:54:46.782Z,42.42
2019-03-19T13:57:18.352Z,42.00
2019-03-19T13:59:49.967Z,41.61
2019-03-19T14:02:21.591Z,42.65
2019-03-19T14:04:54.980Z,41.61
2019-03-19T14:07:26.591Z,43.71
2019-03-19T14:09:58.178Z,42.93
2019-03-19T14:12:29.758Z,43.17
2019-03-19T14:15:01.387Z,42.62
2019-03-19T14:17:33.172Z,42.40
2019-03-19T14:20:05.871Z,43.33
2019-03-19T14:22:37.465Z,42.80
2019-03-19T14:25:09.240Z,42.75
2019-03-19T14:27:40.910Z,42.79
2019-03-19T14:30:17.619Z,43.75
2019-03-19T14:32:50.359Z,43.17
2019-03-19T14:35:23.050Z,43.22
2019-03-19T14:37:54.673Z,43.66
2019-03-19T14:40:26.259Z,43.05
2019-03-19T14:43:00.986Z,43.50
2019-03-19T14:45:32.780Z,44.24
2019-03-19T14:48:06.105Z,43.07
2019-03-19T14:50:37.938Z,42.41
2019-03-19T14:53:10.596Z,42.76
2019-03-19T14:55:42.188Z,42.01
2019-03-19T14:58:13.786Z,43.14
2019-03-19T15:00:45.343Z,43.74
2019-03-19T15:03:16.949Z,44.31
2019-03-19T15:05:48.830Z,45.32
2019-03-19T15:08:20.524Z,45.65
2019-03-19T15:10:52.240Z,45.12
2019-03-19T15:13:23.855Z,45.02
2019-03-19T15:15:55.476Z,44.36
2019-03-19T15:18:27.130Z,44.48
2019-03-19T15:20:58.729Z,44.23
2019-03-19T15:23:30.491Z,44.74
2019-03-19T15:26:02.132Z,45.09
2019-03-19T15:28:33.893Z,43.99
2019-03-19T15:31:05.548Z,43.39
2019-03-19T15:33:37.260Z,43.02
2019-03-19T15:36:08.883Z,43.33
2019-03-19T15:38:40.556Z,42.85
2019-03-19T15:41:12.117Z,42.37
2019-03-19T15:43:43.786Z,42.28
2019-03-19T15:46:15.405Z,42.74
2019-03-19T15:48:47.038Z,42.06
2019-03-19T15:51:18.636Z,42.43
2019-03-19T15:53:50.234Z,42.03
2019-03-19T15:56:22.945Z,42.29
2019-03-19T15:58:54.571Z,42.48
2019-03-19T16:01:26.224Z,42.88
2019-03-19T16:03:57.836Z,43.84
2019-03-19T16:06:29.490Z,43.29
2019-03-19T16:09:03.248Z,43.54
2019-03-19T16:11:35.517Z,44.10
2019-03-19T16:14:07.153Z,43.90
2019-03-19T16:16:38.777Z,43.28
2019-03-19T16:19:10.386Z,42.72
2019-03-19T16:21:41.984Z,43.13
2019-03-19T16:24:13.591Z,42.53
2019-03-19T16:26:46.801Z,42.65
2019-03-19T16:29:18.501Z,43.61
2019-03-19T16:31:51.144Z,44.40
2019-03-19T16:34:23.267Z,44.33
2019-03-19T16:36:54.877Z,45.17
2019-03-19T16:39:26.534Z,42.60
2019-03-19T16:41:58.127Z,42.81
2019-03-19T16:44:29.798Z,43.45
2019-03-19T16:47:01.389Z,43.34
2019-03-19T16:49:33.010Z,43.18
2019-03-19T16:52:04.673Z,42.88
2019-03-19T16:54:36.298Z,42.94
2019-03-19T16:57:10.800Z,42.65
2019-03-19T16:59:42.375Z,43.15
2019-03-19T17:02:14.007Z,43.96
2019-03-19T17:04:45.596Z,44.35
2019-03-19T17:07:17.509Z,43.76
2019-03-19T17:09:49.179Z,44.00
2019-03-19T17:12:20.811Z,44.31
2019-03-19T17:14:52.451Z,44.60
2019-03-19T17:17:24.057Z,45.22
2019-03-19T17:19:55.763Z,45.49
2019-03-19T17:22:28.450Z,46.07
2019-03-19T17:25:00.215Z,46.47
2019-03-19T17:27:31.958Z,45.22
2019-03-19T17:30:03.800Z,45.53
2019-03-19T17:32:35.497Z,45.14
2019-03-19T17:35:07.335Z,45.24
2019-03-19T17:37:38.973Z,46.22
2019-03-19T17:40:11.672Z,47.41
2019-03-19T17:42:44.239Z,47.52
2019-03-19T17:45:16.086Z,47.67
2019-03-19T17:47:48.075Z,48.08
2019-03-19T17:50:20.655Z,48.01
2019-03-19T17:52:52.575Z,47.68
2019-03-19T17:55:24.277Z,48.91
2019-03-19T17:57:55.896Z,48.90
2019-03-19T18:00:29.195Z,49.33
2019-03-19T18:03:00.764Z,49.96
2019-03-19T18:05:33.631Z,50.05
2019-03-19T18:08:05.325Z,49.85
2019-03-19T18:10:36.923Z,49.71
2019-03-19T18:13:08.498Z,50.48
2019-03-19T18:15:40.086Z,50.75
2019-03-19T18:18:11.677Z,51.17
2019-03-19T18:20:43.272Z,51.57
2019-03-19T18:23:14.868Z,52.48
2019-03-19T18:25:47.636Z,52.40
2019-03-19T18:28:19.229Z,52.68
2019-03-19T18:30:50.809Z,53.35
2019-03-19T18:33:22.425Z,53.73
2019-03-19T18:35:56.267Z,54.15
2019-03-19T18:38:27.345Z,54.12
2019-03-19T18:40:58.976Z,54.61
2019-03-19T18:43:30.577Z,53.48
2019-03-19T18:46:02.185Z,53.72
2019-03-19T18:48:33.769Z,54.25
2019-03-19T18:51:05.632Z,55.19
2019-03-19T18:53:37.228Z,55.66
2019-03-19T18:56:08.836Z,56.11
2019-03-19T18:58:40.425Z,56.61
2019-03-19T19:01:12.047Z,56.69
2019-03-19T19:03:43.638Z,57.18
2019-03-19T19:06:15.226Z,57.48
2019-03-19T19:08:46.832Z,57.95
2019-03-19T19:11:18.435Z,58.62
2019-03-19T19:13:50.132Z,58.87
2019-03-19T19:16:21.749Z,59.33
2019-03-19T19:18:53.434Z,59.68
2019-03-19T19:21:25.027Z,59.95
2019-03-19T19:23:56.647Z,60.03
2019-03-19T19:26:28.339Z,60.32
2019-03-19T19:29:00.211Z,60.51
2019-03-19T19:31:31.870Z,60.76
2019-03-19T19:34:03.489Z,61.00
2019-03-19T19:36:35.095Z,60.74
2019-03-19T19:39:08.912Z,60.69
2019-03-19T19:41:40.517Z,61.01
2019-03-19T19:44:12.129Z,61.12
2019-03-19T19:46:45.628Z,61.17
2019-03-19T19:49:17.247Z,61.21
2019-03-19T19:51:48.896Z,61.38
2019-03-19T19:54:20.449Z,61.94
2019-03-19T19:56:52.197Z,62.53
2019-03-19T19:59:23.779Z,62.28
2019-03-19T20:01:55.391Z,62.13
2019-03-19T20:04:26.985Z,62.25
2019-03-19T20:06:58.594Z,62.65
2019-03-19T20:09:30.223Z,62.84
2019-03-19T20:12:01.912Z,63.21
2019-03-19T20:14:33.565Z,63.22
2019-03-19T20:17:05.277Z,63.43
2019-03-19T20:19:38.698Z,63.78
2019-03-19T20:22:10.315Z,63.50
2019-03-19T20:24:41.985Z,63.71
2019-03-19T20:27:13.627Z,63.49
2019-03-19T20:29:46.306Z,62.65
2019-03-19T20:32:17.932Z,63.23
2019-03-19T20:34:49.545Z,64.18
2019-03-19T20:37:21.253Z,64.12
2019-03-19T20:39:52.813Z,64.46
2019-03-19T20:42:24.424Z,65.25
2019-03-19T20:44:56.030Z,65.18
2019-03-19T20:47:27.699Z,65.14
2019-03-19T20:49:59.269Z,65.86
2019-03-19T20:52:30.960Z,65.99
2019-03-19T20:55:02.532Z,66.08
2019-03-19T20:57:34.157Z,65.93
2019-03-19T21:00:07.326Z,66.17
2019-03-19T21:02:39.273Z,66.35
2019-03-19T21:05:10.934Z,66.34
2019-03-19T21:07:42.567Z,65.81
2019-03-19T21:10:17.292Z,66.25
2019-03-19T21:12:49.340Z,66.39
2019-03-19T21:15:23.206Z,66.72
2019-03-19T21:17:56.567Z,66.96
2019-03-19T21:20:28.206Z,67.26
2019-03-19T21:22:59.816Z,67.27
2019-03-19T21:25:31.614Z,67.28
2019-03-19T21:28:13.186Z,67.14
2019-03-19T21:30:36.692Z,67.45
2019-03-19T21:33:08.331Z,67.69
2019-03-19T21:35:40.314Z,67.72
2019-03-19T21:38:11.886Z,67.87
2019-03-19T21:40:43.837Z,68.08
2019-03-19T21:43:15.678Z,68.35
2019-03-19T21:45:47.346Z,68.21
2019-03-19T21:48:19.259Z,68.34
2019-03-19T21:51:10.221Z,68.22
2019-03-19T21:53:42.123Z,68.07
2019-03-19T21:56:14.086Z,68.36
2019-03-19T21:58:45.721Z,68.45
2019-03-19T22:01:20.343Z,68.60
2019-03-19T22:04:02.584Z,68.59
2019-03-19T22:06:27.072Z,68.57
2019-03-19T22:08:59.023Z,68.75
2019-03-19T22:11:30.642Z,68.92
2019-03-19T22:14:02.498Z,68.84
2019-03-19T22:16:36.036Z,68.97
2019-03-19T22:19:07.716Z,69.07
2019-03-19T22:21:39.397Z,69.19
2019-03-19T22:24:11.319Z,69.05
2019-03-19T22:26:44.912Z,69.27
2019-03-19T22:29:16.975Z,69.31
2019-03-19T22:31:48.839Z,69.45
2019-03-19T22:34:20.762Z,69.71
2019-03-19T22:36:52.629Z,69.44
2019-03-19T22:39:26.291Z,69.64
2019-03-19T22:41:58.219Z,69.97
2019-03-19T22:44:31.918Z,70.08
2019-03-19T22:47:03.858Z,69.99
2019-03-19T22:49:35.719Z,69.86
2019-03-19T22:52:07.561Z,69.73
2019-03-19T22:54:39.460Z,69.91
2019-03-19T22:57:11.317Z,70.02
2019-03-19T22:59:43.244Z,70.26
2019-03-19T23:02:15.262Z,70.21
2019-03-19T23:04:47.174Z,70.13
2019-03-19T23:07:19.028Z,70.30
2019-03-19T23:09:50.891Z,70.17
2019-03-19T23:12:24.363Z,70.18
2019-03-19T23:14:56.213Z,70.36
2019-03-19T23:17:28.126Z,70.60
2019-03-19T23:20:00.029Z,70.78
2019-03-19T23:22:31.855Z,70.84
2019-03-19T23:25:03.767Z,70.98
2019-03-19T23:27:35.601Z,70.85
2019-03-19T23:30:08.887Z,71.05
2019-03-19T23:32:40.721Z,70.87
2019-03-19T23:35:13.052Z,71.20
2019-03-19T23:37:44.989Z,71.04
2019-03-19T23:40:16.982Z,71.12
2019-03-19T23:42:48.820Z,71.14
2019-03-19T23:45:20.734Z,71.10
2019-03-19T23:47:52.578Z,70.94
2019-03-19T23:50:24.437Z,71.09
2019-03-19T23:52:56.275Z,71.12
2019-03-19T23:55:28.147Z,71.22
2019-03-19T23:57:59.998Z,71.35
